Time;durP1;ratioP1;P1;durP2;ratioP2;P2;SDS_P1;SDS_P2;PMS_P1;PMS_P2;Temp;Humidity;BMP_temperature;BMP_pressure;BME280_temperature;BME280_humidity;BME280_pressure;Samples;Min_cycle;Max_cycle;Signal;HPM_P1;HPM_P2
2023/02/20 02:07:59;;;;;;;3.63;3.42;;;2.70;99.90;;;;;;6104352;23;20876;-75
2023/02/20 02:10:45;;;;;;;4.40;4.20;;;2.70;99.90;;;;;;6094663;23;20926;-75
2023/02/20 02:13:11;;;;;;;4.65;4.45;;;2.60;99.90;;;;;;6093794;23;20376;-75
2023/02/20 02:15:38;;;;;;;4.07;3.85;;;2.60;99.90;;;;;;6120181;23;20463;-75
2023/02/20 02:18:17;;;;;;;3.97;3.78;;;2.70;99.90;;;;;;6093449;23;20404;-74
2023/02/20 02:21:16;;;;;;;3.95;3.75;;;2.60;99.90;;;;;;6095754;23;20774;-75
2023/02/20 02:24:01;;;;;;;3.63;3.42;;;2.70;99.90;;;;;;6095281;23;20431;-77
2023/02/20 02:26:48;;;;;;;3.80;3.60;;;2.70;99.90;;;;;;6096828;23;20731;-75
2023/02/20 02:29:17;;;;;;;3.53;3.37;;;2.70;99.90;;;;;;6123554;23;20439;-75
2023/02/20 02:32:18;;;;;;;3.78;3.58;;;2.60;99.90;;;;;;6096477;23;20438;-75
2023/02/20 02:35:16;;;;;;;3.50;3.40;;;2.60;99.90;;;;;;6097602;23;20732;-75
2023/02/20 02:38:10;;;;;;;3.72;3.53;;;2.60;99.90;;;;;;6094467;23;20448;-76
2023/02/20 02:40:40;;;;;;;4.00;3.80;;;2.60;99.90;;;;;;6096555;23;20402;-75
2023/02/20 02:43:29;;;;;;;4.17;3.97;;;2.30;99.90;;;;;;6122700;23;20383;-75
2023/02/20 02:46:02;;;;;;;4.55;4.35;;;2.40;99.90;;;;;;6121564;23;20378;-75
2023/02/20 02:48:38;;;;;;;4.03;3.83;;;2.40;99.90;;;;;;6097374;23;20391;-74
2023/02/20 02:51:12;;;;;;;4.10;3.90;;;2.50;99.90;;;;;;6122063;23;20455;-75
2023/02/20 02:53:39;;;;;;;4.00;3.80;;;2.50;99.90;;;;;;6097303;23;20748;-74
2023/02/20 02:56:23;;;;;;;3.15;3.05;;;2.50;99.90;;;;;;6096323;23;20434;-74
2023/02/20 02:58:57;;;;;;;3.97;3.78;;;2.60;99.90;;;;;;6096002;23;20408;-75
2023/02/20 03:01:24;;;;;;;3.85;3.65;;;2.60;99.90;;;;;;6122728;23;20383;-75
2023/02/20 03:03:53;;;;;;;3.60;3.40;;;2.60;99.90;;;;;;6069042;23;20389;-75
2023/02/20 03:06:34;;;;;;;3.75;3.55;;;2.60;99.90;;;;;;6093352;23;20413;-75
2023/02/20 03:09:06;;;;;;;3.35;3.20;;;2.70;99.90;;;;;;6092389;23;20397;-75
2023/02/20 03:11:34;;;;;;;4.10;3.70;;;2.70;99.90;;;;;;6093372;23;20382;-75
2023/02/20 03:17:31;;;;;;;3.17;3.05;;;2.60;99.90;;;;;;6092569;23;20381;-75
2023/02/20 03:20:02;;;;;;;3.17;3.07;;;2.40;99.90;;;;;;6067290;23;20776;-75
2023/02/20 03:22:34;;;;;;;3.53;3.35;;;2.30;99.90;;;;;;6067934;23;20389;-75
2023/02/20 03:25:24;;;;;;;3.63;3.42;;;2.30;99.90;;;;;;6066799;23;20410;-74
2023/02/20 03:27:55;;;;;;;2.92;2.83;;;2.20;99.90;;;;;;6067336;23;20756;-74
2023/02/20 03:30:38;;;;;;;3.50;3.30;;;2.10;99.90;;;;;;6068130;23;20456;-75
2023/02/20 03:44:52;;;;;;;3.80;3.60;;;2.10;99.90;;;;;;6087889;23;20703;-74
2023/02/20 03:47:23;;;;;;;4.22;4.03;;;2.00;99.90;;;;;;6091946;23;20386;-74
2023/02/20 03:49:53;;;;;;;3.50;3.30;;;2.10;99.90;;;;;;6068169;23;20377;-74
2023/02/20 03:52:20;;;;;;;3.40;3.30;;;2.10;99.90;;;;;;6092308;23;20381;-75
2023/02/20 03:54:48;;;;;;;3.35;3.25;;;2.10;99.90;;;;;;6067231;23;20369;-74
2023/02/20 03:57:19;;;;;;;3.50;3.37;;;2.10;99.90;;;;;;6092358;23;20687;-75
2023/02/20 03:59:48;;;;;;;3.57;3.40;;;2.00;99.90;;;;;;6067644;23;20452;-74
2023/02/20 04:02:24;;;;;;;3.20;3.00;;;2.00;99.90;;;;;;6066566;23;20392;-74
2023/02/20 04:04:58;;;;;;;3.58;3.45;;;2.10;99.90;;;;;;6092764;23;20388;-74
2023/02/20 04:07:33;;;;;;;3.15;3.03;;;2.10;99.90;;;;;;6061495;23;20395;-74
2023/02/20 04:10:04;;;;;;;2.97;2.88;;;2.20;99.90;;;;;;6062628;23;20749;-74
2023/02/20 04:12:37;;;;;;;3.50;3.40;;;2.20;99.90;;;;;;6062412;23;20411;-74
2023/02/20 04:15:05;;;;;;;3.38;3.20;;;2.00;99.90;;;;;;6062568;23;20707;-75
2023/02/20 04:17:39;;;;;;;3.30;3.10;;;2.00;99.90;;;;;;6061863;23;20399;-74
2023/02/20 04:20:06;;;;;;;3.93;3.73;;;2.10;99.90;;;;;;6062884;23;20390;-75
2023/02/20 04:22:38;;;;;;;3.93;3.63;;;2.20;99.90;;;;;;6061996;23;20446;-75
2023/02/20 04:25:34;;;;;;;3.58;3.38;;;2.20;99.90;;;;;;6062535;23;20458;-75
2023/02/20 04:28:02;;;;;;;3.50;3.30;;;2.30;99.90;;;;;;6051142;23;20674;-74
2023/02/20 04:30:30;;;;;;;3.28;3.08;;;2.40;99.90;;;;;;6062604;23;20414;-75
2023/02/20 04:32:57;;;;;;;3.70;3.50;;;2.50;99.90;;;;;;6061629;23;20387;-74
2023/02/20 04:35:24;;;;;;;3.40;3.20;;;2.50;99.90;;;;;;6062649;23;20463;-75
2023/02/20 04:37:51;;;;;;;2.95;2.85;;;2.60;99.90;;;;;;6061605;23;20474;-75
2023/02/20 04:40:21;;;;;;;3.40;3.20;;;2.70;99.90;;;;;;6062723;23;20405;-75
2023/02/20 04:42:48;;;;;;;3.47;3.28;;;2.80;99.90;;;;;;6061357;23;20701;-76
2023/02/20 04:45:18;;;;;;;3.60;3.40;;;2.80;99.90;;;;;;6062722;23;20390;-76
2023/02/20 04:47:46;;;;;;;2.83;2.72;;;2.80;99.90;;;;;;6061546;23;20379;-76
2023/02/20 04:50:24;;;;;;;3.00;2.90;;;2.80;99.90;;;;;;6062609;23;20372;-75
2023/02/20 04:52:51;;;;;;;3.30;3.20;;;2.80;99.90;;;;;;6063265;23;20417;-75
2023/02/20 04:55:19;;;;;;;3.33;3.13;;;2.80;99.90;;;;;;6063500;23;20383;-75
2023/02/20 04:57:47;;;;;;;3.50;3.40;;;2.80;99.90;;;;;;6062769;23;20391;-74
2023/02/20 05:00:16;;;;;;;2.85;2.75;;;2.70;99.90;;;;;;6062343;23;20379;-75
2023/02/20 05:02:44;;;;;;;3.63;3.42;;;2.70;99.90;;;;;;6062849;23;20811;-76
2023/02/20 05:05:18;;;;;;;3.40;3.23;;;2.80;99.90;;;;;;6063613;23;20411;-75
2023/02/20 05:07:45;;;;;;;3.70;3.50;;;2.90;99.90;;;;;;6082839;23;20374;-77
2023/02/20 05:10:14;;;;;;;3.17;3.08;;;2.90;99.90;;;;;;6092710;23;20436;-75
2023/02/20 05:12:41;;;;;;;3.88;3.67;;;3.00;99.90;;;;;;6066388;23;20962;-76
2023/02/20 05:15:08;;;;;;;5.00;4.70;;;3.20;99.90;;;;;;6067141;23;20440;-75
2023/02/20 05:17:35;;;;;;;4.50;4.30;;;3.20;99.90;;;;;;6067234;23;20401;-75
2023/02/20 05:20:04;;;;;;;4.40;4.20;;;3.30;99.90;;;;;;6091586;23;20846;-75
2023/02/20 05:22:31;;;;;;;4.05;3.85;;;3.30;99.90;;;;;;6092012;23;20920;-75
2023/02/20 05:24:58;;;;;;;3.92;3.58;;;3.40;99.90;;;;;;6091607;23;20460;-75
2023/02/20 05:27:26;;;;;;;3.30;3.20;;;3.40;99.90;;;;;;6092682;23;20707;-75
2023/02/20 05:29:56;;;;;;;3.30;3.17;;;3.50;99.90;;;;;;6066585;23;20390;-75
2023/02/20 05:32:26;;;;;;;4.00;3.80;;;3.50;99.90;;;;;;6066639;23;20916;-75
2023/02/20 05:34:54;;;;;;;3.83;3.63;;;3.50;99.90;;;;;;6066721;23;20429;-75
2023/02/20 05:37:23;;;;;;;3.15;3.05;;;3.50;99.90;;;;;;6067180;23;20705;-76
2023/02/20 05:39:50;;;;;;;2.83;2.72;;;3.50;99.90;;;;;;6066397;23;20374;-75
2023/02/20 05:42:17;;;;;;;3.90;3.70;;;3.60;99.90;;;;;;6091800;23;20380;-75
2023/02/20 05:44:44;;;;;;;3.85;3.65;;;3.60;99.90;;;;;;6091646;23;20385;-75
2023/02/20 05:47:11;;;;;;;3.70;3.50;;;3.70;99.90;;;;;;6091881;23;20436;-75
2023/02/20 05:49:38;;;;;;;3.60;3.40;;;3.70;99.90;;;;;;6092472;23;20432;-75
2023/02/20 05:52:10;;;;;;;3.78;3.58;;;3.70;99.90;;;;;;6065840;23;20390;-75
2023/02/20 05:54:38;;;;;;;3.97;3.78;;;3.70;99.90;;;;;;6067324;23;20448;-75
2023/02/20 05:57:06;;;;;;;3.47;3.30;;;3.70;99.90;;;;;;6041703;23;21893;-75
2023/02/20 05:59:33;;;;;;;3.60;3.40;;;3.80;99.90;;;;;;6093124;23;20445;-76
2023/02/20 06:02:00;;;;;;;4.38;4.07;;;3.80;99.90;;;;;;6067707;23;20382;-77
2023/02/20 06:04:28;;;;;;;4.63;4.22;;;3.80;99.90;;;;;;6069020;23;20381;-74
2023/02/20 06:06:55;;;;;;;4.75;4.45;;;3.80;99.90;;;;;;6067234;23;20389;-76
2023/02/20 06:09:22;;;;;;;4.50;4.20;;;3.90;99.90;;;;;;6068648;23;20401;-77
2023/02/20 06:11:55;;;;;;;5.22;4.78;;;3.90;99.90;;;;;;6093099;23;20390;-76
2023/02/20 06:14:24;;;;;;;5.28;4.88;;;4.00;99.90;;;;;;6094303;23;20444;-76
2023/02/20 06:16:50;;;;;;;5.45;5.05;;;4.00;99.90;;;;;;6068285;23;20359;-76
2023/02/20 06:19:23;;;;;;;7.07;6.22;;;4.00;99.90;;;;;;6094135;23;20762;-77
2023/02/20 06:21:57;;;;;;;6.80;6.20;;;4.10;99.90;;;;;;6068098;23;20456;-76
2023/02/20 06:24:24;;;;;;;6.05;5.47;;;4.10;99.90;;;;;;6093370;23;20389;-76
2023/02/20 06:26:51;;;;;;;7.07;6.40;;;4.10;99.90;;;;;;6067932;23;20762;-76
2023/02/20 06:29:19;;;;;;;6.80;6.20;;;4.20;99.90;;;;;;6044792;23;20464;-75
2023/02/20 06:31:46;;;;;;;6.18;5.68;;;4.20;99.90;;;;;;6068626;23;20381;-75
2023/02/20 06:34:14;;;;;;;8.13;7.00;;;4.30;99.90;;;;;;6068054;23;20759;-75
2023/02/20 06:36:41;;;;;;;9.40;7.68;;;4.30;99.90;;;;;;6093400;23;20401;-76
2023/02/20 06:39:10;;;;;;;9.90;7.45;;;4.30;99.90;;;;;;6067070;23;20385;-76
2023/02/20 06:41:37;;;;;;;7.78;6.93;;;4.30;99.90;;;;;;6094292;23;20409;-74
2023/02/20 06:44:04;;;;;;;7.20;6.60;;;4.30;99.90;;;;;;6066909;23;20385;-75
2023/02/20 06:46:31;;;;;;;7.53;6.82;;;4.40;99.90;;;;;;6067633;23;20386;-74
2023/02/20 06:48:59;;;;;;;8.80;7.90;;;4.40;99.90;;;;;;6091699;23;20726;-75
2023/02/20 06:51:32;;;;;;;8.88;7.97;;;4.40;99.90;;;;;;6068404;23;20445;-77
2023/02/20 06:54:00;;;;;;;9.43;8.20;;;4.50;99.90;;;;;;6066875;23;20385;-77
2023/02/20 06:56:29;;;;;;;8.90;8.00;;;4.50;99.90;;;;;;6065087;23;20699;-75
2023/02/20 06:58:57;;;;;;;10.15;8.90;;;4.50;99.90;;;;;;6067423;23;20916;-75
2023/02/20 07:01:27;;;;;;;7.60;6.90;;;4.60;99.90;;;;;;6068164;23;20444;-76
2023/02/20 07:03:55;;;;;;;8.30;7.50;;;4.60;99.90;;;;;;6067238;23;20722;-75
2023/02/20 07:06:23;;;;;;;7.95;7.25;;;4.70;99.90;;;;;;6067970;23;20405;-76
2023/02/20 07:08:50;;;;;;;9.02;8.13;;;4.70;99.90;;;;;;6068609;23;20381;-75
2023/02/20 07:11:19;;;;;;;8.30;7.60;;;4.80;99.90;;;;;;6091992;23;20369;-75
2023/02/20 07:13:46;;;;;;;9.52;8.63;;;4.80;99.90;;;;;;6068430;23;20404;-75
2023/02/20 07:16:13;;;;;;;8.77;7.97;;;5.00;99.90;;;;;;6067553;23;20376;-75
2023/02/20 07:18:41;;;;;;;8.52;7.78;;;5.00;99.90;;;;;;6068827;23;20440;-76
2023/02/20 07:21:08;;;;;;;8.43;7.65;;;5.10;99.90;;;;;;6067682;23;20385;-75
2023/02/20 07:23:35;;;;;;;8.50;7.80;;;5.20;99.90;;;;;;6068163;23;20385;-75
2023/02/20 07:26:02;;;;;;;9.02;8.35;;;5.20;99.90;;;;;;6067745;23;20374;-75
2023/02/20 07:28:29;;;;;;;7.90;7.30;;;5.30;99.90;;;;;;6068249;23;20373;-77
2023/02/20 07:30:55;;;;;;;8.52;7.82;;;5.40;99.90;;;;;;6092681;23;20691;-75
2023/02/20 07:33:22;;;;;;;8.48;7.68;;;5.50;99.90;;;;;;6093367;23;20373;-75
2023/02/20 07:35:49;;;;;;;8.13;7.43;;;5.60;99.90;;;;;;6065423;23;20377;-74
2023/02/20 07:38:16;;;;;;;8.50;7.80;;;5.60;99.90;;;;;;6091921;23;20395;-75
2023/02/20 07:40:43;;;;;;;9.10;8.30;;;5.70;99.90;;;;;;6093470;23;20374;-75
2023/02/20 07:43:10;;;;;;;8.90;8.00;;;5.70;99.90;;;;;;6091765;23;20452;-75
2023/02/20 07:45:38;;;;;;;8.57;7.88;;;5.70;99.90;;;;;;6092713;23;20436;-75
2023/02/20 07:48:05;;;;;;;8.07;7.47;;;5.70;99.90;;;;;;6092087;23;20762;-75
2023/02/20 07:50:33;;;;;;;8.15;7.55;;;5.80;99.90;;;;;;6067564;23;20844;-75
2023/02/20 07:53:03;;;;;;;8.55;7.85;;;5.80;99.90;;;;;;6067143;23;20382;-75
2023/02/20 07:55:31;;;;;;;8.15;7.55;;;5.80;99.90;;;;;;6092961;23;20377;-75
2023/02/20 07:57:58;;;;;;;9.30;8.52;;;5.90;99.90;;;;;;6067186;23;20753;-76
2023/02/20 08:00:26;;;;;;;8.75;8.05;;;6.00;99.90;;;;;;6068102;23;20373;-75
2023/02/20 08:02:53;;;;;;;8.60;7.90;;;6.00;99.90;;;;;;6067756;23;20412;-76
2023/02/20 08:05:20;;;;;;;8.35;7.65;;;6.10;99.90;;;;;;6067479;23;20385;-77
2023/02/20 08:07:49;;;;;;;8.98;8.27;;;6.10;99.90;;;;;;6067098;23;20797;-76
2023/02/20 08:10:19;;;;;;;8.27;7.68;;;6.20;99.90;;;;;;6092160;23;20373;-76
2023/02/20 08:12:48;;;;;;;8.27;7.67;;;6.30;99.90;;;;;;6067406;23;20436;-75
2023/02/20 08:15:17;;;;;;;7.50;6.90;;;6.40;99.90;;;;;;6067184;23;20448;-75
2023/02/20 08:17:44;;;;;;;7.88;7.28;;;6.50;99.90;;;;;;6044327;23;20388;-74
2023/02/20 08:20:15;;;;;;;7.18;6.65;;;6.50;99.90;;;;;;6067435;23;20456;-75
2023/02/20 08:22:46;;;;;;;7.32;6.80;;;6.60;99.90;;;;;;6067631;23;20381;-74
2023/02/20 08:25:17;;;;;;;7.23;6.73;;;6.70;99.90;;;;;;6067413;23;20452;-76
2023/02/20 08:27:46;;;;;;;7.13;6.63;;;6.80;99.90;;;;;;6068115;23;20381;-75
2023/02/20 08:30:22;;;;;;;7.50;6.90;;;6.90;99.90;;;;;;6050520;23;20436;-74
2023/02/20 08:32:54;;;;;;;7.25;6.68;;;7.00;99.90;;;;;;6047659;23;20868;-75
2023/02/20 08:35:23;;;;;;;7.13;6.63;;;7.10;99.90;;;;;;6067344;23;20464;-75
2023/02/20 08:37:50;;;;;;;6.90;6.40;;;7.10;99.90;;;;;;6044063;23;20921;-75
2023/02/20 08:40:18;;;;;;;6.65;6.15;;;7.10;99.90;;;;;;6067407;23;20380;-75
2023/02/20 08:42:48;;;;;;;7.30;6.78;;;7.20;99.90;;;;;;6066289;23;20845;-75
2023/02/20 08:45:16;;;;;;;6.88;6.35;;;7.20;99.90;;;;;;6065224;23;20412;-76
2023/02/20 08:47:42;;;;;;;6.78;6.28;;;7.30;99.90;;;;;;6068047;23;20377;-75
2023/02/20 08:50:10;;;;;;;6.70;6.30;;;7.30;99.90;;;;;;6065960;23;20430;-75
2023/02/20 08:52:36;;;;;;;7.15;6.68;;;7.40;99.90;;;;;;6043999;23;20377;-76
2023/02/20 08:55:04;;;;;;;5.88;5.47;;;7.50;99.90;;;;;;6067085;23;20396;-76
2023/02/20 08:57:30;;;;;;;6.70;6.20;;;7.50;99.90;;;;;;6066462;23;20369;-75
2023/02/20 08:59:57;;;;;;;6.55;6.05;;;7.60;99.90;;;;;;6067471;23;20408;-75
2023/02/20 09:02:27;;;;;;;6.25;5.85;;;7.80;99.90;;;;;;6091509;23;20448;-75
2023/02/20 09:04:55;;;;;;;6.65;6.25;;;8.00;99.90;;;;;;6067360;23;20448;-75
2023/02/20 09:07:23;;;;;;;6.20;5.80;;;8.20;99.90;;;;;;6091787;23;20373;-75
2023/02/20 09:09:50;;;;;;;6.18;5.78;;;8.30;99.90;;;;;;6067154;23;20378;-75
2023/02/20 09:12:17;;;;;;;5.90;5.53;;;8.40;99.90;;;;;;6089930;23;20710;-75
2023/02/20 09:14:45;;;;;;;5.82;5.43;;;8.50;99.90;;;;;;6067372;23;20444;-75
2023/02/20 09:17:12;;;;;;;5.43;5.13;;;8.50;99.90;;;;;;6066459;23;20405;-76
2023/02/20 09:19:38;;;;;;;5.95;5.55;;;8.50;99.90;;;;;;6067788;23;20917;-76
2023/02/20 09:22:05;;;;;;;6.13;5.72;;;8.60;99.90;;;;;;6067148;23;20392;-76
2023/02/20 09:24:35;;;;;;;6.00;5.60;;;8.70;99.90;;;;;;6066215;23;20442;-76
2023/02/20 09:27:05;;;;;;;4.97;4.68;;;8.90;99.90;;;;;;6067182;23;20381;-75
2023/02/20 09:29:32;;;;;;;5.10;4.80;;;8.90;99.90;;;;;;6091922;23;20365;-75
2023/02/20 09:31:59;;;;;;;4.88;4.57;;;9.00;99.90;;;;;;6067402;23;20377;-77
2023/02/20 09:34:26;;;;;;;4.55;4.35;;;9.20;99.90;;;;;;6091907;23;20546;-76
2023/02/20 09:36:53;;;;;;;5.20;4.90;;;9.40;99.90;;;;;;6069569;23;20768;-75
2023/02/20 09:39:21;;;;;;;5.05;4.75;;;9.60;99.90;;;;;;6093816;23;20412;-77
2023/02/20 09:41:54;;;;;;;4.68;4.38;;;9.90;99.90;;;;;;6069482;23;20428;-77
2023/02/20 09:44:30;;;;;;;5.10;4.80;;;10.10;99.90;;;;;;6093587;23;20393;-76
2023/02/20 09:47:04;;;;;;;4.63;4.43;;;10.10;99.90;;;;;;6068901;23;20854;-76
2023/02/20 09:49:33;;;;;;;4.35;4.15;;;10.20;99.90;;;;;;6068709;23;20666;-76
2023/02/20 09:52:04;;;;;;;4.25;4.05;;;10.20;99.90;;;;;;6069589;23;20380;-76
2023/02/20 09:54:40;;;;;;;4.50;4.30;;;10.20;99.90;;;;;;6067979;23;20815;-75
2023/02/20 09:57:15;;;;;;;4.90;4.60;;;10.30;99.90;;;;;;6069469;23;20432;-75
2023/02/20 09:59:44;;;;;;;5.23;4.93;;;10.30;99.90;;;;;;6068956;23;20370;-75
2023/02/20 10:02:15;;;;;;;4.60;4.40;;;10.20;99.90;;;;;;6067933;23;20429;-76
2023/02/20 10:04:46;;;;;;;4.57;4.38;;;10.30;99.90;;;;;;6067311;23;20376;-76
2023/02/20 10:07:47;;;;;;;4.10;3.90;;;10.30;99.90;;;;;;6070475;23;20381;-75
2023/02/20 10:10:27;;;;;;;4.95;4.65;;;10.30;99.90;;;;;;6068694;23;20380;-76
2023/02/20 10:13:14;;;;;;;4.80;4.50;;;10.30;99.90;;;;;;6094203;23;20706;-76
2023/02/20 10:16:05;;;;;;;5.10;4.70;;;10.40;99.90;;;;;;6067827;23;20778;-75
2023/02/20 10:18:47;;;;;;;4.38;4.18;;;10.60;99.90;;;;;;6068290;23;20389;-75
2023/02/20 10:21:20;;;;;;;4.45;4.25;;;10.60;99.90;;;;;;6068550;23;20441;-76
2023/02/20 10:23:56;;;;;;;4.88;4.57;;;10.70;99.90;;;;;;6092445;23;20727;-75
2023/02/20 10:26:43;;;;;;;4.13;3.88;;;10.80;99.90;;;;;;6069634;23;20441;-75
2023/02/20 10:29:22;;;;;;;4.80;4.50;;;11.00;99.90;;;;;;6068509;23;20750;-75
2023/02/20 10:32:20;;;;;;;4.13;3.92;;;10.90;99.90;;;;;;6067267;23;20373;-75
2023/02/20 10:35:23;;;;;;;3.92;3.72;;;10.40;99.90;;;;;;6068723;23;20385;-77
2023/02/20 10:37:55;;;;;;;3.60;3.40;;;10.50;99.90;;;;;;6036354;23;20792;-76
2023/02/20 10:40:29;;;;;;;3.78;3.58;;;10.80;99.90;;;;;;6067753;23;20385;-75
2023/02/20 10:43:24;;;;;;;4.00;3.80;;;11.00;99.90;;;;;;6067115;23;20377;-75
2023/02/20 10:46:02;;;;;;;4.00;3.78;;;10.90;99.90;;;;;;6066693;23;20475;-75
2023/02/20 10:48:32;;;;;;;4.13;3.93;;;10.80;99.90;;;;;;6067744;23;20408;-76
2023/02/20 10:51:30;;;;;;;3.80;3.60;;;10.90;99.90;;;;;;6092986;23;20419;-76
2023/02/20 10:54:09;;;;;;;3.80;3.60;;;10.90;99.90;;;;;;6066856;23;20397;-76
2023/02/20 10:56:42;;;;;;;3.90;3.70;;;10.70;99.90;;;;;;6067045;23;20378;-75
2023/02/20 10:59:09;;;;;;;4.05;3.85;;;10.70;99.90;;;;;;6067630;23;20384;-76
2023/02/20 11:01:37;;;;;;;4.13;3.92;;;10.80;99.90;;;;;;6066572;23;20429;-75
2023/02/20 11:04:16;;;;;;;3.95;3.75;;;10.90;99.90;;;;;;6067964;23;20377;-75
2023/02/20 11:07:07;;;;;;;3.53;3.37;;;11.00;99.90;;;;;;6067007;23;20501;-77
2023/02/20 11:09:34;;;;;;;3.85;3.65;;;11.00;99.90;;;;;;6068334;23;20409;-77
2023/02/20 11:12:02;;;;;;;3.80;3.60;;;11.00;99.90;;;;;;6067526;23;20374;-77
2023/02/20 11:14:46;;;;;;;3.97;3.78;;;11.00;99.90;;;;;;6067583;23;20684;-76
2023/02/20 11:17:19;;;;;;;3.90;3.70;;;11.10;99.90;;;;;;6066870;23;20396;-76
2023/02/20 11:19:54;;;;;;;4.18;3.92;;;11.20;99.90;;;;;;6067666;23;20679;-75
2023/02/20 11:22:57;;;;;;;4.43;4.13;;;11.40;99.90;;;;;;6066696;23;20742;-75
2023/02/20 11:25:35;;;;;;;4.25;4.00;;;11.40;99.90;;;;;;5948143;24;20430;-75
2023/02/20 11:28:10;;;;;;;3.88;3.67;;;11.40;99.40;;;;;;6048990;23;20460;-75
2023/02/20 11:30:40;;;;;;;4.13;3.92;;;11.30;99.30;;;;;;6067881;23;20413;-75
2023/02/20 11:33:22;;;;;;;4.60;4.30;;;11.30;99.90;;;;;;6067364;23;20539;-75
2023/02/20 11:35:56;;;;;;;3.67;3.47;;;11.20;99.90;;;;;;6067912;23;20385;-75
2023/02/20 11:38:31;;;;;;;3.72;3.53;;;11.20;99.90;;;;;;6091130;23;20369;-75
2023/02/20 11:41:00;;;;;;;3.80;3.60;;;11.20;99.90;;;;;;6067792;23;20384;-76
2023/02/20 11:43:35;;;;;;;3.53;3.43;;;11.30;99.80;;;;;;6092486;23;20481;-75
2023/02/20 11:46:14;;;;;;;3.83;3.63;;;11.20;99.90;;;;;;6067575;23;20435;-75
2023/02/20 11:49:00;;;;;;;3.88;3.58;;;11.20;99.90;;;;;;6064347;23;20424;-76
2023/02/20 11:51:37;;;;;;;3.78;3.55;;;11.20;99.90;;;;;;6067573;23;20385;-76
2023/02/20 11:54:16;;;;;;;3.70;3.50;;;11.20;99.90;;;;;;6068022;23;20389;-75
2023/02/20 11:57:09;;;;;;;3.67;3.47;;;11.00;99.90;;;;;;6067416;23;20437;-75
2023/02/20 11:59:40;;;;;;;4.18;3.97;;;11.00;99.90;;;;;;6067358;23;20433;-76
2023/02/20 12:02:23;;;;;;;4.00;3.80;;;11.10;99.90;;;;;;6067985;23;20433;-76
2023/02/20 12:05:08;;;;;;;3.97;3.78;;;11.20;99.90;;;;;;6067078;23;20880;-76
2023/02/20 12:07:38;;;;;;;3.97;3.78;;;11.20;99.90;;;;;;6066923;23;20436;-76
2023/02/20 12:10:26;;;;;;;3.63;3.42;;;11.20;99.90;;;;;;6067526;23;20457;-76
2023/02/20 12:12:53;;;;;;;4.38;4.18;;;11.30;99.90;;;;;;6091724;23;20864;-76
2023/02/20 12:15:25;;;;;;;3.55;3.35;;;11.30;99.90;;;;;;6092941;23;20830;-75
2023/02/20 12:17:52;;;;;;;3.72;3.53;;;11.30;99.90;;;;;;6066180;23;20385;-76
2023/02/20 12:20:23;;;;;;;3.92;3.72;;;11.30;99.90;;;;;;6067381;23;20377;-75
2023/02/20 12:23:10;;;;;;;3.80;3.60;;;11.30;99.90;;;;;;6066321;23;20401;-77
2023/02/20 12:25:55;;;;;;;3.80;3.60;;;11.30;99.90;;;;;;6065976;23;20457;-76
2023/02/20 12:28:38;;;;;;;4.05;3.85;;;11.30;99.90;;;;;;6067527;23;20373;-75
2023/02/20 12:31:29;;;;;;;3.80;3.60;;;11.20;99.90;;;;;;6066879;23;20377;-75
2023/02/20 12:34:34;;;;;;;3.97;3.67;;;11.30;99.90;;;;;;6066252;23;20465;-75
2023/02/20 12:37:00;;;;;;;3.60;3.40;;;11.30;99.90;;;;;;6091484;23;20517;-75
2023/02/20 12:39:52;;;;;;;3.70;3.50;;;11.30;99.90;;;;;;6067068;23;20726;-75
2023/02/20 12:42:45;;;;;;;3.70;3.50;;;11.40;99.90;;;;;;6066412;23;20409;-75
2023/02/20 12:45:20;;;;;;;3.90;3.70;;;11.40;99.90;;;;;;6091081;23;20389;-76
2023/02/20 12:48:02;;;;;;;3.67;3.47;;;11.30;99.90;;;;;;6067637;23;20384;-75
2023/02/20 12:50:49;;;;;;;4.00;3.80;;;11.30;99.90;;;;;;6066389;23;20842;-74
2023/02/20 12:53:41;;;;;;;4.05;3.85;;;11.30;99.90;;;;;;6090934;23;20778;-75
2023/02/20 12:56:38;;;;;;;4.00;3.80;;;11.30;99.90;;;;;;6066148;23;20381;-75
2023/02/20 12:59:43;;;;;;;3.90;3.70;;;11.30;99.90;;;;;;6066340;23;20381;-76
2023/02/20 13:02:35;;;;;;;4.07;3.88;;;11.40;99.90;;;;;;6065968;23;20377;-76
2023/02/20 13:05:13;;;;;;;3.95;3.75;;;11.30;99.90;;;;;;6067222;23;20408;-76
2023/02/20 13:08:03;;;;;;;4.43;4.22;;;11.20;99.90;;;;;;6066739;23;20425;-75
2023/02/20 13:10:34;;;;;;;3.78;3.58;;;11.10;99.90;;;;;;6065691;23;20373;-75
2023/02/20 13:13:01;;;;;;;4.20;4.00;;;11.20;99.90;;;;;;6066840;23;20374;-75
2023/02/20 13:16:09;;;;;;;4.18;3.90;;;11.30;99.90;;;;;;6066228;23;20728;-75
2023/02/20 13:18:56;;;;;;;4.43;4.20;;;11.40;99.90;;;;;;6066149;23;20381;-74
2023/02/20 13:21:27;;;;;;;4.18;3.97;;;11.50;99.90;;;;;;6090870;23;20702;-76
2023/02/20 13:24:25;;;;;;;4.50;4.22;;;11.50;99.90;;;;;;6066943;23;20386;-76
2023/02/20 13:26:58;;;;;;;4.43;4.18;;;11.30;99.90;;;;;;6066422;23;20373;-76
2023/02/20 13:29:27;;;;;;;4.22;4.03;;;11.20;99.90;;;;;;6040660;23;20441;-75
2023/02/20 13:31:56;;;;;;;3.78;3.58;;;11.30;99.90;;;;;;6066148;23;20436;-75
2023/02/20 13:34:30;;;;;;;4.28;4.07;;;11.40;99.90;;;;;;6092028;23;20864;-77
2023/02/20 13:36:58;;;;;;;4.65;4.40;;;11.50;99.90;;;;;;6065765;23;20369;-75
2023/02/20 13:39:31;;;;;;;4.60;4.40;;;11.50;99.90;;;;;;6066501;23;20373;-75
2023/02/20 13:42:03;;;;;;;4.47;4.17;;;11.60;99.90;;;;;;6066122;23;20369;-74
2023/02/20 13:44:36;;;;;;;4.90;4.40;;;11.60;99.90;;;;;;6067499;23;20758;-75
2023/02/20 13:47:31;;;;;;;4.10;3.90;;;11.70;99.70;;;;;;6065452;23;20676;-76
2023/02/20 13:49:59;;;;;;;4.43;4.13;;;11.80;98.60;;;;;;6055877;23;20378;-75
2023/02/20 13:52:39;;;;;;;4.25;4.05;;;11.90;98.00;;;;;;6066613;23;20452;-75
2023/02/20 13:55:09;;;;;;;4.43;4.22;;;11.90;97.90;;;;;;6065970;23;20444;-74
2023/02/20 13:57:47;;;;;;;4.38;4.18;;;11.90;97.90;;;;;;6067412;23;20457;-75
2023/02/20 14:00:41;;;;;;;5.90;5.60;;;11.90;97.80;;;;;;6091852;23;20374;-74
2023/02/20 14:03:30;;;;;;;6.47;6.10;;;11.60;99.10;;;;;;6091075;23;20373;-77
2023/02/20 14:06:04;;;;;;;5.27;4.97;;;11.40;99.90;;;;;;6065215;23;20444;-75
2023/02/20 14:08:31;;;;;;;5.60;5.30;;;11.30;99.90;;;;;;6066888;23;20863;-74
2023/02/20 14:11:12;;;;;;;4.22;4.03;;;11.20;99.90;;;;;;6064400;23;20381;-75
2023/02/20 14:13:46;;;;;;;4.80;4.50;;;11.30;99.90;;;;;;6091901;23;20381;-74
2023/02/20 14:16:36;;;;;;;3.92;3.70;;;11.50;99.90;;;;;;6064574;23;20365;-74
2023/02/20 14:19:22;;;;;;;4.20;4.00;;;11.50;99.60;;;;;;6065498;23;20763;-76
2023/02/20 14:21:49;;;;;;;4.50;4.30;;;11.70;98.80;;;;;;6068152;23;20436;-76
2023/02/20 14:24:26;;;;;;;4.30;4.10;;;11.60;99.60;;;;;;6066731;23;20381;-76
2023/02/20 14:26:58;;;;;;;4.45;4.25;;;11.40;99.90;;;;;;6067244;23;20385;-77
2023/02/20 14:29:33;;;;;;;4.15;3.85;;;11.50;99.90;;;;;;6068875;23;20400;-76
2023/02/20 14:32:02;;;;;;;4.35;4.15;;;11.50;98.90;;;;;;6092946;23;20452;-76
2023/02/20 14:34:48;;;;;;;4.13;3.92;;;11.50;99.10;;;;;;6068792;23;20381;-76
2023/02/20 14:37:33;;;;;;;4.35;4.15;;;11.60;99.30;;;;;;6066295;23;20909;-75
2023/02/20 14:40:14;;;;;;;4.07;3.88;;;11.60;99.10;;;;;;6067904;23;20377;-73
2023/02/20 14:42:44;;;;;;;4.30;4.10;;;11.70;98.60;;;;;;6068552;23;20384;-75
2023/02/20 14:45:24;;;;;;;4.60;4.30;;;11.60;98.90;;;;;;6065631;23;20449;-76
2023/02/20 14:47:57;;;;;;;4.55;4.25;;;11.70;98.10;;;;;;6068806;23;20401;-75
2023/02/20 14:50:32;;;;;;;4.38;4.18;;;11.70;96.90;;;;;;6067608;23;20381;-75
2023/02/20 14:53:11;;;;;;;4.45;4.25;;;11.70;97.90;;;;;;6068237;23;20759;-78
2023/02/20 14:55:40;;;;;;;4.43;4.13;;;11.70;97.90;;;;;;6069079;23;20385;-75
2023/02/20 14:58:15;;;;;;;3.77;3.57;;;11.80;97.20;;;;;;6067211;23;20381;-75
2023/02/20 15:00:44;;;;;;;4.27;4.07;;;11.90;97.20;;;;;;6068930;23;20498;-75
2023/02/20 15:03:22;;;;;;;4.20;4.00;;;12.00;97.40;;;;;;6066732;23;20706;-75
2023/02/20 15:06:02;;;;;;;3.90;3.70;;;12.10;96.90;;;;;;6070157;23;20405;-75
2023/02/20 15:08:34;;;;;;;4.07;3.88;;;12.20;95.20;;;;;;6067777;23;20675;-75
2023/02/20 15:11:11;;;;;;;4.30;4.10;;;12.20;96.70;;;;;;6045170;23;20381;-76
2023/02/20 15:13:42;;;;;;;4.00;3.80;;;12.30;95.90;;;;;;6044461;23;20436;-76
2023/02/20 15:16:21;;;;;;;4.25;4.05;;;12.30;94.40;;;;;;6068388;23;20461;-76
2023/02/20 15:18:49;;;;;;;4.40;4.20;;;12.40;93.70;;;;;;6067376;23;20385;-76
2023/02/20 15:21:35;;;;;;;5.28;4.97;;;12.30;93.80;;;;;;6068667;23;20453;-76
2023/02/20 15:24:31;;;;;;;5.60;5.20;;;12.10;96.00;;;;;;6067133;23;20378;-75
2023/02/20 15:27:16;;;;;;;4.85;4.65;;;11.90;97.80;;;;;;6067035;23;20381;-76
2023/02/20 15:29:45;;;;;;;5.20;4.90;;;12.00;97.60;;;;;;6067256;23;20405;-75
2023/02/20 15:32:24;;;;;;;5.97;5.65;;;12.10;97.10;;;;;;6067906;23;20385;-75
2023/02/20 15:34:55;;;;;;;5.20;4.90;;;12.10;97.30;;;;;;6067115;23;20388;-75
2023/02/20 15:37:25;;;;;;;5.35;5.05;;;12.10;97.30;;;;;;6068416;23;20382;-76
2023/02/20 15:40:30;;;;;;;4.90;4.60;;;12.30;97.10;;;;;;6070779;23;20440;-76
2023/02/20 15:42:58;;;;;;;5.20;4.90;;;12.30;95.80;;;;;;6066780;23;20384;-76
2023/02/20 15:45:36;;;;;;;5.30;5.00;;;12.30;95.50;;;;;;6069674;23;20401;-77
2023/02/20 15:48:04;;;;;;;4.85;4.55;;;12.00;95.80;;;;;;6067861;23;20403;-76
2023/02/20 15:50:31;;;;;;;5.15;4.85;;;11.90;96.80;;;;;;6066975;23;20905;-74